sensor_id;sensor_type;location;lat;lon;timestamp;temperature;humidity
23729;DHT22;12045;60.214;24.724;2022-11-04T00:00:24;8.00;99.90
23729;DHT22;12045;60.214;24.724;2022-11-04T00:02:56;8.10;99.90
23729;DHT22;12045;60.214;24.724;2022-11-04T00:05:23;8.10;99.90
23729;DHT22;12045;60.214;24.724;2022-11-04T00:07:51;8.20;99.90
23729;DHT22;12045;60.214;24.724;2022-11-04T00:10:37;8.10;99.90
23729;DHT22;12045;60.214;24.724;2022-11-04T00:13:37;8.60;99.90
23729;DHT22;12045;60.214;24.724;2022-11-04T00:16:05;8.20;99.90
23729;DHT22;12045;60.214;24.724;2022-11-04T00:18:51;8.20;99.90
23729;DHT22;12045;60.214;24.724;2022-11-04T00:21:19;7.90;99.90
23729;DHT22;12045;60.214;24.724;2022-11-04T00:24:05;8.20;99.90
23729;DHT22;12045;60.214;24.724;2022-11-04T00:26:56;8.20;99.90
23729;DHT22;12045;60.214;24.724;2022-11-04T00:29:42;8.20;99.90
23729;DHT22;12045;60.214;24.724;2022-11-04T00:32:10;8.20;99.90
23729;DHT22;12045;60.214;24.724;2022-11-04T00:34:56;8.20;99.90
23729;DHT22;12045;60.214;24.724;2022-11-04T00:37:24;8.10;99.90
23729;DHT22;12045;60.214;24.724;2022-11-04T00:39:51;8.80;99.90
23729;DHT22;12045;60.214;24.724;2022-11-04T00:42:19;8.20;99.90
23729;DHT22;12045;60.214;24.724;2022-11-04T00:44:47;8.20;99.90
23729;DHT22;12045;60.214;24.724;2022-11-04T00:47:14;8.30;99.90
23729;DHT22;12045;60.214;24.724;2022-11-04T00:49:42;8.30;99.90
23729;DHT22;12045;60.214;24.724;2022-11-04T00:52:09;8.30;99.90
23729;DHT22;12045;60.214;24.724;2022-11-04T00:54:37;8.30;99.90
23729;DHT22;12045;60.214;24.724;2022-11-04T00:57:09;8.30;99.90
23729;DHT22;12045;60.214;24.724;2022-11-04T00:59:36;7.40;99.90
23729;DHT22;12045;60.214;24.724;2022-11-04T01:02:04;8.40;99.90
23729;DHT22;12045;60.214;24.724;2022-11-04T01:04:33;8.30;99.90
23729;DHT22;12045;60.214;24.724;2022-11-04T01:07:01;8.30;99.90
23729;DHT22;12045;60.214;24.724;2022-11-04T01:09:29;8.30;99.90
23729;DHT22;12045;60.214;24.724;2022-11-04T01:11:56;8.60;99.90
23729;DHT22;12045;60.214;24.724;2022-11-04T01:14:24;8.30;99.90
23729;DHT22;12045;60.214;24.724;2022-11-04T01:16:51;8.30;99.90
23729;DHT22;12045;60.214;24.724;2022-11-04T01:19:19;8.30;99.90
23729;DHT22;12045;60.214;24.724;2022-11-04T01:21:49;8.30;99.90
23729;DHT22;12045;60.214;24.724;2022-11-04T01:24:18;8.20;99.90
23729;DHT22;12045;60.214;24.724;2022-11-04T01:26:45;8.30;99.90
23729;DHT22;12045;60.214;24.724;2022-11-04T01:29:13;9.20;99.90
23729;DHT22;12045;60.214;24.724;2022-11-04T01:31:41;8.20;99.90
23729;DHT22;12045;60.214;24.724;2022-11-04T01:34:09;8.30;99.90
23729;DHT22;12045;60.214;24.724;2022-11-04T01:36:36;8.20;99.90
23729;DHT22;12045;60.214;24.724;2022-11-04T01:39:04;8.20;99.90
23729;DHT22;12045;60.214;24.724;2022-11-04T01:41:33;8.30;99.90
23729;DHT22;12045;60.214;24.724;2022-11-04T01:44:42;8.30;99.90
23729;DHT22;12045;60.214;24.724;2022-11-04T01:46:51;8.30;99.90
23729;DHT22;12045;60.214;24.724;2022-11-04T01:52:02;8.20;99.90
23729;DHT22;12045;60.214;24.724;2022-11-04T01:54:32;8.10;99.90
23729;DHT22;12045;60.214;24.724;2022-11-04T01:57:03;8.10;99.90
23729;DHT22;12045;60.214;24.724;2022-11-04T01:59:35;8.00;99.90
23729;DHT22;12045;60.214;24.724;2022-11-04T02:02:05;8.00;99.90
23729;DHT22;12045;60.214;24.724;2022-11-04T02:04:35;8.00;99.90
23729;DHT22;12045;60.214;24.724;2022-11-04T02:07:06;8.00;99.90
23729;DHT22;12045;60.214;24.724;2022-11-04T02:09:35;8.00;99.90
23729;DHT22;12045;60.214;24.724;2022-11-04T02:12:03;8.00;99.90
23729;DHT22;12045;60.214;24.724;2022-11-04T02:14:50;8.10;99.90
23729;DHT22;12045;60.214;24.724;2022-11-04T02:17:37;8.00;99.90
23729;DHT22;12045;60.214;24.724;2022-11-04T02:42:36;8.00;99.90
23729;DHT22;12045;60.214;24.724;2022-11-04T02:45:21;8.00;99.90
23729;DHT22;12045;60.214;24.724;2022-11-04T02:47:56;8.00;99.90
23729;DHT22;12045;60.214;24.724;2022-11-04T02:50:31;8.00;99.90
23729;DHT22;12045;60.214;24.724;2022-11-04T02:53:26;8.00;99.90
23729;DHT22;12045;60.214;24.724;2022-11-04T02:55:57;8.00;99.90
23729;DHT22;12045;60.214;24.724;2022-11-04T02:58:31;8.00;99.90
23729;DHT22;12045;60.214;24.724;2022-11-04T03:01:02;7.90;99.90
23729;DHT22;12045;60.214;24.724;2022-11-04T03:03:36;7.70;99.90
23729;DHT22;12045;60.214;24.724;2022-11-04T03:06:05;7.90;99.90
23729;DHT22;12045;60.214;24.724;2022-11-04T03:08:37;8.00;99.90
23729;DHT22;12045;60.214;24.724;2022-11-04T03:11:10;8.00;99.90
23729;DHT22;12045;60.214;24.724;2022-11-04T03:13:49;8.00;99.90
23729;DHT22;12045;60.214;24.724;2022-11-04T03:16:21;8.00;99.90
23729;DHT22;12045;60.214;24.724;2022-11-04T03:19:28;7.90;99.90
23729;DHT22;12045;60.214;24.724;2022-11-04T03:22:04;8.00;99.90
23729;DHT22;12045;60.214;24.724;2022-11-04T03:24:33;8.00;99.90
23729;DHT22;12045;60.214;24.724;2022-11-04T03:29:38;7.90;99.90
23729;DHT22;12045;60.214;24.724;2022-11-04T03:32:34;7.10;99.90
23729;DHT22;12045;60.214;24.724;2022-11-04T03:35:05;7.90;99.90
23729;DHT22;12045;60.214;24.724;2022-11-04T03:37:33;7.90;99.90
23729;DHT22;12045;60.214;24.724;2022-11-04T03:40:02;7.80;99.90
23729;DHT22;12045;60.214;24.724;2022-11-04T03:42:31;7.80;99.90
23729;DHT22;12045;60.214;24.724;2022-11-04T03:45:01;7.80;99.90
23729;DHT22;12045;60.214;24.724;2022-11-04T03:47:29;7.80;99.90
23729;DHT22;12045;60.214;24.724;2022-11-04T03:50:03;7.90;99.90
23729;DHT22;12045;60.214;24.724;2022-11-04T03:52:33;7.90;99.90
23729;DHT22;12045;60.214;24.724;2022-11-04T03:55:03;7.90;99.90
23729;DHT22;12045;60.214;24.724;2022-11-04T04:00:39;7.90;99.90
23729;DHT22;12045;60.214;24.724;2022-11-04T04:03:30;8.00;99.90
23729;DHT22;12045;60.214;24.724;2022-11-04T04:06:07;8.00;99.90
23729;DHT22;12045;60.214;24.724;2022-11-04T04:14:15;7.50;99.90
23729;DHT22;12045;60.214;24.724;2022-11-04T04:20:05;7.90;99.90
23729;DHT22;12045;60.214;24.724;2022-11-04T04:22:39;8.00;99.90
23729;DHT22;12045;60.214;24.724;2022-11-04T04:25:09;8.00;99.90
23729;DHT22;12045;60.214;24.724;2022-11-04T04:27:56;8.00;99.90
23729;DHT22;12045;60.214;24.724;2022-11-04T04:30:25;7.60;99.90
23729;DHT22;12045;60.214;24.724;2022-11-04T04:32:59;8.00;99.90
23729;DHT22;12045;60.214;24.724;2022-11-04T04:35:32;8.00;99.90
23729;DHT22;12045;60.214;24.724;2022-11-04T04:38:18;7.90;99.90
23729;DHT22;12045;60.214;24.724;2022-11-04T04:41:18;7.90;99.90
23729;DHT22;12045;60.214;24.724;2022-11-04T04:44:18;7.90;99.90
23729;DHT22;12045;60.214;24.724;2022-11-04T04:47:05;7.90;99.90
23729;DHT22;12045;60.214;24.724;2022-11-04T04:49:33;7.90;99.90
23729;DHT22;12045;60.214;24.724;2022-11-04T04:52:03;7.80;99.90
23729;DHT22;12045;60.214;24.724;2022-11-04T04:54:31;7.90;99.90
23729;DHT22;12045;60.214;24.724;2022-11-04T04:56:59;7.80;99.90
23729;DHT22;12045;60.214;24.724;2022-11-04T04:59:26;7.90;99.90
23729;DHT22;12045;60.214;24.724;2022-11-04T05:01:54;7.90;99.90
23729;DHT22;12045;60.214;24.724;2022-11-04T05:04:21;8.00;99.90
23729;DHT22;12045;60.214;24.724;2022-11-04T05:06:49;8.00;99.90
23729;DHT22;12045;60.214;24.724;2022-11-04T05:09:16;8.10;99.90
23729;DHT22;12045;60.214;24.724;2022-11-04T05:11:44;8.10;99.90
23729;DHT22;12045;60.214;24.724;2022-11-04T05:14:11;8.10;99.90
23729;DHT22;12045;60.214;24.724;2022-11-04T05:16:39;8.00;99.90
23729;DHT22;12045;60.214;24.724;2022-11-04T05:19:07;8.00;99.90
23729;DHT22;12045;60.214;24.724;2022-11-04T05:21:34;8.00;99.90
23729;DHT22;12045;60.214;24.724;2022-11-04T05:24:02;8.10;99.90
23729;DHT22;12045;60.214;24.724;2022-11-04T05:26:29;8.00;99.90
23729;DHT22;12045;60.214;24.724;2022-11-04T05:28:59;8.00;99.90
23729;DHT22;12045;60.214;24.724;2022-11-04T05:31:27;8.10;99.90
23729;DHT22;12045;60.214;24.724;2022-11-04T05:33:56;8.10;99.90
23729;DHT22;12045;60.214;24.724;2022-11-04T05:36:25;8.10;99.90
23729;DHT22;12045;60.214;24.724;2022-11-04T05:38:53;8.10;99.90
23729;DHT22;12045;60.214;24.724;2022-11-04T05:41:24;8.10;99.90
23729;DHT22;12045;60.214;24.724;2022-11-04T05:43:59;8.10;99.90
23729;DHT22;12045;60.214;24.724;2022-11-04T05:46:28;8.90;99.90
23729;DHT22;12045;60.214;24.724;2022-11-04T05:48:55;8.20;99.90
23729;DHT22;12045;60.214;24.724;2022-11-04T05:51:25;8.20;99.90
23729;DHT22;12045;60.214;24.724;2022-11-04T05:53:53;8.10;99.90
23729;DHT22;12045;60.214;24.724;2022-11-04T05:56:21;8.10;99.90
23729;DHT22;12045;60.214;24.724;2022-11-04T05:58:49;7.60;99.90
23729;DHT22;12045;60.214;24.724;2022-11-04T06:01:35;8.00;99.90
23729;DHT22;12045;60.214;24.724;2022-11-04T06:04:04;8.00;99.90
23729;DHT22;12045;60.214;24.724;2022-11-04T06:06:34;8.00;99.90
23729;DHT22;12045;60.214;24.724;2022-11-04T06:09:02;8.00;99.90
23729;DHT22;12045;60.214;24.724;2022-11-04T06:11:31;8.00;99.90
23729;DHT22;12045;60.214;24.724;2022-11-04T06:13:59;8.10;99.90
23729;DHT22;12045;60.214;24.724;2022-11-04T06:16:27;8.10;99.90
23729;DHT22;12045;60.214;24.724;2022-11-04T06:18:55;8.60;99.90
23729;DHT22;12045;60.214;24.724;2022-11-04T06:21:32;8.00;99.90
23729;DHT22;12045;60.214;24.724;2022-11-04T06:24:31;8.00;99.90
23729;DHT22;12045;60.214;24.724;2022-11-04T06:27:02;8.20;99.90
23729;DHT22;12045;60.214;24.724;2022-11-04T06:33:29;8.20;99.90
23729;DHT22;12045;60.214;24.724;2022-11-04T06:36:35;7.80;99.90
23729;DHT22;12045;60.214;24.724;2022-11-04T06:39:03;8.10;99.90
23729;DHT22;12045;60.214;24.724;2022-11-04T06:41:32;8.10;99.90
23729;DHT22;12045;60.214;24.724;2022-11-04T06:44:21;8.20;99.90
23729;DHT22;12045;60.214;24.724;2022-11-04T06:46:51;7.50;99.90
23729;DHT22;12045;60.214;24.724;2022-11-04T06:49:23;8.10;99.90
23729;DHT22;12045;60.214;24.724;2022-11-04T06:51:55;8.30;99.90
23729;DHT22;12045;60.214;24.724;2022-11-04T06:54:23;8.20;99.90
23729;DHT22;12045;60.214;24.724;2022-11-04T06:56:51;8.50;99.90
23729;DHT22;12045;60.214;24.724;2022-11-04T06:59:19;8.80;99.90
23729;DHT22;12045;60.214;24.724;2022-11-04T07:01:51;8.20;99.90
23729;DHT22;12045;60.214;24.724;2022-11-04T07:04:20;8.20;99.90
23729;DHT22;12045;60.214;24.724;2022-11-04T07:06:48;8.20;99.90
23729;DHT22;12045;60.214;24.724;2022-11-04T07:09:17;8.20;99.90
23729;DHT22;12045;60.214;24.724;2022-11-04T07:11:46;8.30;99.90
23729;DHT22;12045;60.214;24.724;2022-11-04T07:14:14;8.60;99.90
23729;DHT22;12045;60.214;24.724;2022-11-04T07:16:43;8.20;99.90
23729;DHT22;12045;60.214;24.724;2022-11-04T07:19:36;8.10;99.90
23729;DHT22;12045;60.214;24.724;2022-11-04T07:22:04;7.40;99.90
23729;DHT22;12045;60.214;24.724;2022-11-04T07:24:32;8.30;99.90
23729;DHT22;12045;60.214;24.724;2022-11-04T07:27:05;8.30;99.90
23729;DHT22;12045;60.214;24.724;2022-11-04T07:29:34;8.40;99.90
23729;DHT22;12045;60.214;24.724;2022-11-04T07:32:41;7.80;99.90
23729;DHT22;12045;60.214;24.724;2022-11-04T07:35:25;8.80;99.90
23729;DHT22;12045;60.214;24.724;2022-11-04T07:37:54;8.20;99.90
23729;DHT22;12045;60.214;24.724;2022-11-04T07:40:23;8.90;99.90
23729;DHT22;12045;60.214;24.724;2022-11-04T07:42:54;7.90;99.90
23729;DHT22;12045;60.214;24.724;2022-11-04T07:45:22;8.20;99.90
23729;DHT22;12045;60.214;24.724;2022-11-04T07:55:57;8.20;99.90
23729;DHT22;12045;60.214;24.724;2022-11-04T07:58:45;8.20;99.90
23729;DHT22;12045;60.214;24.724;2022-11-04T08:01:20;9.60;99.90
23729;DHT22;12045;60.214;24.724;2022-11-04T08:04:35;8.20;99.90
23729;DHT22;12045;60.214;24.724;2022-11-04T08:07:09;8.40;99.90
23729;DHT22;12045;60.214;24.724;2022-11-04T08:09:39;8.00;99.90
23729;DHT22;12045;60.214;24.724;2022-11-04T08:12:09;8.60;99.90
23729;DHT22;12045;60.214;24.724;2022-11-04T08:14:37;8.00;99.90
23729;DHT22;12045;60.214;24.724;2022-11-04T08:17:05;8.10;99.90
23729;DHT22;12045;60.214;24.724;2022-11-04T08:19:33;8.00;99.90
23729;DHT22;12045;60.214;24.724;2022-11-04T08:22:07;8.70;99.90
23729;DHT22;12045;60.214;24.724;2022-11-04T08:24:38;8.20;99.90
23729;DHT22;12045;60.214;24.724;2022-11-04T08:27:08;8.10;99.90
23729;DHT22;12045;60.214;24.724;2022-11-04T08:29:37;8.10;99.90
23729;DHT22;12045;60.214;24.724;2022-11-04T08:32:07;7.60;99.90
23729;DHT22;12045;60.214;24.724;2022-11-04T08:34:38;8.20;99.90
23729;DHT22;12045;60.214;24.724;2022-11-04T08:37:07;8.40;99.90
23729;DHT22;12045;60.214;24.724;2022-11-04T08:39:36;8.00;99.90
23729;DHT22;12045;60.214;24.724;2022-11-04T08:42:07;8.40;99.90
23729;DHT22;12045;60.214;24.724;2022-11-04T08:44:39;8.10;99.90
23729;DHT22;12045;60.214;24.724;2022-11-04T08:47:09;8.60;99.90
23729;DHT22;12045;60.214;24.724;2022-11-04T08:49:39;8.40;99.90
23729;DHT22;12045;60.214;24.724;2022-11-04T08:52:10;8.30;99.90
23729;DHT22;12045;60.214;24.724;2022-11-04T08:54:41;8.00;99.90
23729;DHT22;12045;60.214;24.724;2022-11-04T08:57:11;8.20;99.90
23729;DHT22;12045;60.214;24.724;2022-11-04T08:59:40;8.20;99.90
23729;DHT22;12045;60.214;24.724;2022-11-04T09:02:13;8.40;99.90
23729;DHT22;12045;60.214;24.724;2022-11-04T09:04:42;6.10;99.90
23729;DHT22;12045;60.214;24.724;2022-11-04T09:07:10;8.30;99.90
23729;DHT22;12045;60.214;24.724;2022-11-04T09:09:39;8.60;99.90
23729;DHT22;12045;60.214;24.724;2022-11-04T09:12:12;8.30;99.90
23729;DHT22;12045;60.214;24.724;2022-11-04T09:14:42;8.50;99.90
23729;DHT22;12045;60.214;24.724;2022-11-04T09:17:09;8.30;99.90
23729;DHT22;12045;60.214;24.724;2022-11-04T09:19:37;8.30;99.90
23729;DHT22;12045;60.214;24.724;2022-11-04T09:22:05;8.20;99.90
23729;DHT22;12045;60.214;24.724;2022-11-04T09:24:33;8.40;99.90
23729;DHT22;12045;60.214;24.724;2022-11-04T09:27:01;8.70;99.90
23729;DHT22;12045;60.214;24.724;2022-11-04T09:29:30;8.40;99.90
23729;DHT22;12045;60.214;24.724;2022-11-04T09:32:00;6.20;99.90
23729;DHT22;12045;60.214;24.724;2022-11-04T09:34:28;8.90;99.90
23729;DHT22;12045;60.214;24.724;2022-11-04T09:36:57;8.40;99.90
23729;DHT22;12045;60.214;24.724;2022-11-04T09:39:25;8.40;99.90
23729;DHT22;12045;60.214;24.724;2022-11-04T09:44:49;8.30;99.90
23729;DHT22;12045;60.214;24.724;2022-11-04T09:47:41;8.30;99.90
23729;DHT22;12045;60.214;24.724;2022-11-04T09:50:20;8.40;99.90
23729;DHT22;12045;60.214;24.724;2022-11-04T09:53:20;8.30;99.90
23729;DHT22;12045;60.214;24.724;2022-11-04T09:56:00;8.00;99.90
23729;DHT22;12045;60.214;24.724;2022-11-04T09:58:32;8.30;99.90
23729;DHT22;12045;60.214;24.724;2022-11-04T10:01:20;9.40;99.90
23729;DHT22;12045;60.214;24.724;2022-11-04T10:10:03;8.20;99.90
23729;DHT22;12045;60.214;24.724;2022-11-04T10:21:39;8.10;99.90
23729;DHT22;12045;60.214;24.724;2022-11-04T10:26:52;8.00;99.90
23729;DHT22;12045;60.214;24.724;2022-11-04T10:31:59;8.00;99.90
23729;DHT22;12045;60.214;24.724;2022-11-04T10:34:36;8.10;99.90
23729;DHT22;12045;60.214;24.724;2022-11-04T10:37:10;8.10;99.90
23729;DHT22;12045;60.214;24.724;2022-11-04T10:39:46;8.10;99.90
23729;DHT22;12045;60.214;24.724;2022-11-04T10:42:19;8.10;99.90
23729;DHT22;12045;60.214;24.724;2022-11-04T10:44:52;8.10;99.90
23729;DHT22;12045;60.214;24.724;2022-11-04T10:54:53;8.30;99.90
23729;DHT22;12045;60.214;24.724;2022-11-04T10:57:57;8.00;99.90
23729;DHT22;12045;60.214;24.724;2022-11-04T11:04:17;8.00;99.90
23729;DHT22;12045;60.214;24.724;2022-11-04T11:06:53;9.70;99.90
23729;DHT22;12045;60.214;24.724;2022-11-04T11:09:27;10.30;99.90
23729;DHT22;12045;60.214;24.724;2022-11-04T11:27:29;8.00;99.90
23729;DHT22;12045;60.214;24.724;2022-11-04T11:29:57;7.90;99.90
23729;DHT22;12045;60.214;24.724;2022-11-04T11:32:32;7.50;99.90
23729;DHT22;12045;60.214;24.724;2022-11-04T11:35:52;8.40;99.90
23729;DHT22;12045;60.214;24.724;2022-11-04T11:38:36;7.80;99.90
23729;DHT22;12045;60.214;24.724;2022-11-04T11:41:32;8.00;99.90
23729;DHT22;12045;60.214;24.724;2022-11-04T11:53:28;7.90;99.90
23729;DHT22;12045;60.214;24.724;2022-11-04T11:56:17;7.50;99.90
23729;DHT22;12045;60.214;24.724;2022-11-04T11:59:03;7.80;99.90
23729;DHT22;12045;60.214;24.724;2022-11-04T12:04:29;7.70;99.90
23729;DHT22;12045;60.214;24.724;2022-11-04T12:13:27;7.70;99.90
23729;DHT22;12045;60.214;24.724;2022-11-04T12:21:32;7.80;99.90
23729;DHT22;12045;60.214;24.724;2022-11-04T12:24:09;7.70;99.90
23729;DHT22;12045;60.214;24.724;2022-11-04T12:33:07;7.60;99.90
23729;DHT22;12045;60.214;24.724;2022-11-04T12:50:36;7.10;99.90
23729;DHT22;12045;60.214;24.724;2022-11-04T12:56:22;8.00;99.90
23729;DHT22;12045;60.214;24.724;2022-11-04T13:02:06;7.20;99.90
23729;DHT22;12045;60.214;24.724;2022-11-04T13:04:51;7.50;99.90
23729;DHT22;12045;60.214;24.724;2022-11-04T13:07:36;7.50;99.90
23729;DHT22;12045;60.214;24.724;2022-11-04T13:11:28;7.40;99.90
23729;DHT22;12045;60.214;24.724;2022-11-04T13:13:37;7.40;99.90
23729;DHT22;12045;60.214;24.724;2022-11-04T13:16:11;7.40;99.90
23729;DHT22;12045;60.214;24.724;2022-11-04T13:18:45;7.50;99.90
23729;DHT22;12045;60.214;24.724;2022-11-04T13:21:20;8.00;99.90
23729;DHT22;12045;60.214;24.724;2022-11-04T13:24:24;7.50;99.90
23729;DHT22;12045;60.214;24.724;2022-11-04T13:27:02;7.50;99.90
23729;DHT22;12045;60.214;24.724;2022-11-04T13:29:31;7.50;99.90
23729;DHT22;12045;60.214;24.724;2022-11-04T13:32:07;7.60;99.90
23729;DHT22;12045;60.214;24.724;2022-11-04T13:37:23;7.50;99.90
23729;DHT22;12045;60.214;24.724;2022-11-04T13:39:56;7.40;99.90
23729;DHT22;12045;60.214;24.724;2022-11-04T13:42:47;7.40;99.90
23729;DHT22;12045;60.214;24.724;2022-11-04T13:45:20;7.50;99.90
23729;DHT22;12045;60.214;24.724;2022-11-04T13:47:56;7.50;99.90
23729;DHT22;12045;60.214;24.724;2022-11-04T13:50:36;7.50;99.90
23729;DHT22;12045;60.214;24.724;2022-11-04T13:53:06;7.60;99.90
23729;DHT22;12045;60.214;24.724;2022-11-04T13:55:47;7.60;99.90
23729;DHT22;12045;60.214;24.724;2022-11-04T13:58:26;7.90;99.90
23729;DHT22;12045;60.214;24.724;2022-11-04T14:04:17;7.40;99.90
23729;DHT22;12045;60.214;24.724;2022-11-04T14:07:00;7.40;99.90
23729;DHT22;12045;60.214;24.724;2022-11-04T14:09:49;7.40;99.90
23729;DHT22;12045;60.214;24.724;2022-11-04T14:12:25;7.80;99.90
23729;DHT22;12045;60.214;24.724;2022-11-04T14:25:22;7.50;99.90
23729;DHT22;12045;60.214;24.724;2022-11-04T14:28:15;7.40;99.90
23729;DHT22;12045;60.214;24.724;2022-11-04T14:31:11;7.50;99.90
23729;DHT22;12045;60.214;24.724;2022-11-04T14:33:52;7.50;99.90
23729;DHT22;12045;60.214;24.724;2022-11-04T14:39:24;7.50;99.90
23729;DHT22;12045;60.214;24.724;2022-11-04T14:42:01;7.50;99.90
23729;DHT22;12045;60.214;24.724;2022-11-04T14:44:40;7.50;99.90
23729;DHT22;12045;60.214;24.724;2022-11-04T14:49:52;7.60;99.90
23729;DHT22;12045;60.214;24.724;2022-11-04T14:52:32;7.70;99.90
23729;DHT22;12045;60.214;24.724;2022-11-04T14:55:05;7.70;99.90
23729;DHT22;12045;60.214;24.724;2022-11-04T14:57:44;7.60;99.90
23729;DHT22;12045;60.214;24.724;2022-11-04T15:06:00;7.70;99.90
23729;DHT22;12045;60.214;24.724;2022-11-04T15:08:41;7.60;99.90
23729;DHT22;12045;60.214;24.724;2022-11-04T15:13:46;7.70;99.90
23729;DHT22;12045;60.214;24.724;2022-11-04T15:16:23;8.40;99.90
23729;DHT22;12045;60.214;24.724;2022-11-04T15:18:53;7.70;99.90
23729;DHT22;12045;60.214;24.724;2022-11-04T15:21:22;7.70;99.90
23729;DHT22;12045;60.214;24.724;2022-11-04T15:23:51;7.90;99.90
23729;DHT22;12045;60.214;24.724;2022-11-04T15:26:29;7.70;99.90
23729;DHT22;12045;60.214;24.724;2022-11-04T15:29:00;7.70;99.90
23729;DHT22;12045;60.214;24.724;2022-11-04T15:31:29;8.00;99.90
23729;DHT22;12045;60.214;24.724;2022-11-04T15:34:05;7.70;99.90
23729;DHT22;12045;60.214;24.724;2022-11-04T15:36:41;7.70;99.90
23729;DHT22;12045;60.214;24.724;2022-11-04T15:39:23;7.70;99.90
23729;DHT22;12045;60.214;24.724;2022-11-04T15:41:56;7.70;99.90
23729;DHT22;12045;60.214;24.724;2022-11-04T15:44:49;7.70;99.90
23729;DHT22;12045;60.214;24.724;2022-11-04T15:49:46;7.50;99.90
23729;DHT22;12045;60.214;24.724;2022-11-04T15:54:46;7.50;99.90
23729;DHT22;12045;60.214;24.724;2022-11-04T15:57:51;7.50;99.90
23729;DHT22;12045;60.214;24.724;2022-11-04T16:05:29;7.90;99.90
23729;DHT22;12045;60.214;24.724;2022-11-04T16:08:23;7.50;99.90
23729;DHT22;12045;60.214;24.724;2022-11-04T16:13:36;7.50;99.90
23729;DHT22;12045;60.214;24.724;2022-11-04T16:16:11;7.50;99.90
23729;DHT22;12045;60.214;24.724;2022-11-04T16:18:47;7.50;99.90
23729;DHT22;12045;60.214;24.724;2022-11-04T16:21:34;7.50;99.90
23729;DHT22;12045;60.214;24.724;2022-11-04T16:24:24;6.60;99.90
23729;DHT22;12045;60.214;24.724;2022-11-04T16:26:56;7.50;99.90
23729;DHT22;12045;60.214;24.724;2022-11-04T16:29:24;7.60;99.90
23729;DHT22;12045;60.214;24.724;2022-11-04T16:32:17;7.60;99.90
23729;DHT22;12045;60.214;24.724;2022-11-04T16:34:48;7.60;99.90
23729;DHT22;12045;60.214;24.724;2022-11-04T16:37:19;7.50;99.90
23729;DHT22;12045;60.214;24.724;2022-11-04T16:39:46;7.50;99.90
23729;DHT22;12045;60.214;24.724;2022-11-04T16:42:16;7.50;99.90
23729;DHT22;12045;60.214;24.724;2022-11-04T16:44:50;7.40;99.90
23729;DHT22;12045;60.214;24.724;2022-11-04T16:47:18;6.30;99.90
23729;DHT22;12045;60.214;24.724;2022-11-04T16:49:47;5.50;99.90
23729;DHT22;12045;60.214;24.724;2022-11-04T16:52:22;7.40;99.90
23729;DHT22;12045;60.214;24.724;2022-11-04T16:54:51;7.40;99.90
23729;DHT22;12045;60.214;24.724;2022-11-04T16:57:23;7.30;99.90
23729;DHT22;12045;60.214;24.724;2022-11-04T16:59:51;7.30;99.90
23729;DHT22;12045;60.214;24.724;2022-11-04T17:02:26;7.40;99.90
23729;DHT22;12045;60.214;24.724;2022-11-04T17:04:55;7.30;99.90
23729;DHT22;12045;60.214;24.724;2022-11-04T17:07:23;7.40;99.90
23729;DHT22;12045;60.214;24.724;2022-11-04T17:10:23;5.40;99.90
23729;DHT22;12045;60.214;24.724;2022-11-04T17:12:51;7.10;99.90
23729;DHT22;12045;60.214;24.724;2022-11-04T17:15:18;7.20;99.90
23729;DHT22;12045;60.214;24.724;2022-11-04T17:17:46;7.20;99.90
23729;DHT22;12045;60.214;24.724;2022-11-04T17:20:15;7.20;99.90
23729;DHT22;12045;60.214;24.724;2022-11-04T17:22:46;7.30;99.90
23729;DHT22;12045;60.214;24.724;2022-11-04T17:25:21;7.30;99.90
23729;DHT22;12045;60.214;24.724;2022-11-04T17:27:50;7.50;99.90
23729;DHT22;12045;60.214;24.724;2022-11-04T17:30:19;7.10;99.90
23729;DHT22;12045;60.214;24.724;2022-11-04T17:32:48;7.10;99.90
23729;DHT22;12045;60.214;24.724;2022-11-04T17:35:16;7.00;99.90
23729;DHT22;12045;60.214;24.724;2022-11-04T17:37:44;7.00;99.90
23729;DHT22;12045;60.214;24.724;2022-11-04T17:40:15;7.10;99.90
23729;DHT22;12045;60.214;24.724;2022-11-04T17:42:43;7.10;99.90
23729;DHT22;12045;60.214;24.724;2022-11-04T17:45:38;7.00;99.90
23729;DHT22;12045;60.214;24.724;2022-11-04T17:48:06;6.90;99.90
23729;DHT22;12045;60.214;24.724;2022-11-04T17:50:37;6.90;99.90
23729;DHT22;12045;60.214;24.724;2022-11-04T17:53:07;6.90;99.90
23729;DHT22;12045;60.214;24.724;2022-11-04T17:55:37;6.90;99.90
23729;DHT22;12045;60.214;24.724;2022-11-04T17:58:05;6.90;99.90
23729;DHT22;12045;60.214;24.724;2022-11-04T18:00:33;6.90;99.90
23729;DHT22;12045;60.214;24.724;2022-11-04T18:03:01;6.80;99.90
23729;DHT22;12045;60.214;24.724;2022-11-04T18:05:28;6.90;99.90
23729;DHT22;12045;60.214;24.724;2022-11-04T18:07:59;6.90;99.90
23729;DHT22;12045;60.214;24.724;2022-11-04T18:10:28;6.90;99.90
23729;DHT22;12045;60.214;24.724;2022-11-04T18:12:58;6.90;99.90
23729;DHT22;12045;60.214;24.724;2022-11-04T18:15:25;6.90;99.90
23729;DHT22;12045;60.214;24.724;2022-11-04T18:17:53;6.80;99.90
23729;DHT22;12045;60.214;24.724;2022-11-04T18:20:20;6.70;99.90
23729;DHT22;12045;60.214;24.724;2022-11-04T18:22:48;6.70;99.90
23729;DHT22;12045;60.214;24.724;2022-11-04T18:25:16;6.80;99.90
23729;DHT22;12045;60.214;24.724;2022-11-04T18:27:43;6.90;99.90
23729;DHT22;12045;60.214;24.724;2022-11-04T18:30:11;6.90;99.90
23729;DHT22;12045;60.214;24.724;2022-11-04T18:32:39;6.80;99.90
23729;DHT22;12045;60.214;24.724;2022-11-04T18:35:07;6.80;99.90
23729;DHT22;12045;60.214;24.724;2022-11-04T18:37:34;6.80;99.90
23729;DHT22;12045;60.214;24.724;2022-11-04T18:40:03;6.70;99.90
23729;DHT22;12045;60.214;24.724;2022-11-04T18:42:30;6.80;99.90
23729;DHT22;12045;60.214;24.724;2022-11-04T18:44:58;6.80;99.90
23729;DHT22;12045;60.214;24.724;2022-11-04T18:47:26;6.80;99.90
23729;DHT22;12045;60.214;24.724;2022-11-04T18:49:53;6.70;99.90
23729;DHT22;12045;60.214;24.724;2022-11-04T18:52:21;6.70;99.90
23729;DHT22;12045;60.214;24.724;2022-11-04T18:54:49;6.70;99.90
23729;DHT22;12045;60.214;24.724;2022-11-04T18:57:16;6.50;99.90
23729;DHT22;12045;60.214;24.724;2022-11-04T18:59:44;6.70;99.90
23729;DHT22;12045;60.214;24.724;2022-11-04T19:02:21;6.60;99.90
23729;DHT22;12045;60.214;24.724;2022-11-04T19:04:50;6.60;99.90
23729;DHT22;12045;60.214;24.724;2022-11-04T19:07:18;6.50;99.90
23729;DHT22;12045;60.214;24.724;2022-11-04T19:09:46;6.50;99.90
23729;DHT22;12045;60.214;24.724;2022-11-04T19:12:15;6.40;99.90
23729;DHT22;12045;60.214;24.724;2022-11-04T19:15:02;6.50;99.90
23729;DHT22;12045;60.214;24.724;2022-11-04T19:17:34;6.40;99.90
23729;DHT22;12045;60.214;24.724;2022-11-04T19:20:03;6.40;99.90
23729;DHT22;12045;60.214;24.724;2022-11-04T19:22:38;6.80;99.90
23729;DHT22;12045;60.214;24.724;2022-11-04T19:25:07;6.00;99.90
23729;DHT22;12045;60.214;24.724;2022-11-04T19:27:35;6.20;99.90